createdAt,value
2018-03-14T00:00:10.230Z,8.97
2018-03-14T00:02:37.602Z,9.10
2018-03-14T00:05:05.024Z,10.60
2018-03-14T00:07:32.395Z,8.17
2018-03-14T00:09:59.817Z,10.23
2018-03-14T00:12:27.176Z,11.90
2018-03-14T00:14:54.658Z,14.00
2018-03-14T00:17:22.113Z,10.03
2018-03-14T00:19:49.458Z,10.83
2018-03-14T00:22:31.727Z,10.67
2018-03-14T00:24:59.098Z,11.00
2018-03-14T00:27:26.439Z,9.80
2018-03-14T00:29:53.810Z,11.63
2018-03-14T00:32:21.209Z,9.83
2018-03-14T00:34:48.567Z,8.23
2018-03-14T00:37:15.935Z,11.17
2018-03-14T00:39:43.286Z,8.30
2018-03-14T00:42:10.660Z,10.20
2018-03-14T00:44:38.019Z,12.53
2018-03-14T00:47:05.402Z,9.87
2018-03-14T00:49:32.973Z,11.53
2018-03-14T00:52:00.359Z,11.17
2018-03-14T00:54:27.796Z,10.47
2018-03-14T00:56:55.195Z,11.90
2018-03-14T00:59:22.561Z,11.10
2018-03-14T01:01:49.941Z,10.13
2018-03-14T01:04:17.303Z,11.50
2018-03-14T01:06:44.680Z,11.00
2018-03-14T01:09:12.035Z,10.57
2018-03-14T01:11:39.431Z,10.17
2018-03-14T01:14:06.798Z,11.23
2018-03-14T01:16:34.184Z,10.20
2018-03-14T01:19:01.550Z,9.83
2018-03-14T01:21:28.931Z,14.80
2018-03-14T01:23:56.280Z,9.00
2018-03-14T01:26:23.654Z,9.20
2018-03-14T01:28:51.015Z,9.80
2018-03-14T01:31:18.388Z,8.23
2018-03-14T01:33:45.747Z,10.37
2018-03-14T01:36:13.124Z,10.20
2018-03-14T01:38:40.466Z,8.43
2018-03-14T01:41:07.840Z,11.30
2018-03-14T01:43:35.221Z,11.20
2018-03-14T01:46:02.614Z,9.70
2018-03-14T01:48:29.966Z,9.63
2018-03-14T01:50:57.470Z,14.37
2018-03-14T01:53:28.713Z,12.27
2018-03-14T01:55:56.128Z,10.63
2018-03-14T01:58:23.492Z,10.83
2018-03-14T02:00:50.895Z,10.33
2018-03-14T02:03:18.341Z,13.87
2018-03-14T02:05:45.798Z,10.90
2018-03-14T02:08:13.203Z,10.57
2018-03-14T02:10:40.609Z,9.63
2018-03-14T02:13:08.067Z,9.17
2018-03-14T02:15:35.453Z,8.57
2018-03-14T02:18:02.882Z,8.67
2018-03-14T02:20:30.248Z,7.93
2018-03-14T02:22:57.619Z,6.70
2018-03-14T02:25:24.971Z,6.20
2018-03-14T02:27:52.336Z,6.50
2018-03-14T02:30:19.759Z,6.90
2018-03-14T02:32:47.253Z,7.33
2018-03-14T02:35:14.671Z,7.80
2018-03-14T02:37:42.067Z,6.33
2018-03-14T02:40:09.412Z,7.80
2018-03-14T02:42:36.796Z,8.67
2018-03-14T02:45:04.162Z,7.90
2018-03-14T02:47:31.524Z,9.70
2018-03-14T02:49:58.863Z,8.17
2018-03-14T02:52:26.258Z,10.03
2018-03-14T02:54:53.594Z,8.47
2018-03-14T02:57:20.966Z,9.17
2018-03-14T02:59:48.299Z,9.67
2018-03-14T03:02:15.658Z,10.20
2018-03-14T03:04:43.002Z,10.27
2018-03-14T03:07:10.489Z,8.03
2018-03-14T03:09:37.824Z,10.10
2018-03-14T03:12:05.301Z,11.70
2018-03-14T03:14:32.646Z,10.37
2018-03-14T03:17:00.011Z,11.00
2018-03-14T03:19:27.353Z,10.07
2018-03-14T03:21:54.709Z,11.90
2018-03-14T03:24:22.055Z,12.07
2018-03-14T03:26:49.433Z,10.30
2018-03-14T03:29:16.785Z,11.60
2018-03-14T03:31:44.162Z,13.20
2018-03-14T03:34:11.543Z,11.80
2018-03-14T03:36:38.952Z,11.67
2018-03-14T03:39:06.292Z,15.00
2018-03-14T03:41:33.629Z,15.20
2018-03-14T03:44:01.004Z,14.00
2018-03-14T03:46:28.368Z,15.73
2018-03-14T03:48:55.743Z,13.67
2018-03-14T03:51:23.125Z,15.03
2018-03-14T03:53:50.507Z,17.33
2018-03-14T03:56:17.890Z,14.13
2018-03-14T03:58:45.350Z,16.13
2018-03-14T04:01:12.695Z,18.90
2018-03-14T04:03:40.078Z,18.13
2018-03-14T04:06:07.446Z,19.17
2018-03-14T04:08:34.810Z,16.13
2018-03-14T04:11:02.154Z,16.90
2018-03-14T04:13:29.540Z,15.00
2018-03-14T04:15:56.899Z,14.13
2018-03-14T04:18:24.261Z,15.20
2018-03-14T04:20:51.632Z,15.50
2018-03-14T04:23:19.000Z,16.33
2018-03-14T04:25:46.343Z,17.83
2018-03-14T04:28:13.713Z,19.40
2018-03-14T04:30:41.067Z,19.20
2018-03-14T04:33:08.445Z,16.13
2018-03-14T04:35:35.788Z,19.97
2018-03-14T04:38:03.237Z,17.50
2018-03-14T04:40:30.579Z,16.97
2018-03-14T04:42:57.948Z,17.90
2018-03-14T04:45:25.287Z,19.50
2018-03-14T04:47:52.663Z,18.20
2018-03-14T04:50:20.015Z,16.93
2018-03-14T04:52:47.464Z,20.70
2018-03-14T04:55:14.806Z,17.60
2018-03-14T04:57:42.175Z,17.83
2018-03-14T05:00:09.551Z,18.10
2018-03-14T05:02:36.987Z,15.63
2018-03-14T05:05:04.336Z,17.57
2018-03-14T05:07:31.765Z,18.17
2018-03-14T05:09:59.170Z,16.07
2018-03-14T05:12:26.610Z,14.93
2018-03-14T05:14:53.979Z,15.20
2018-03-14T05:17:21.319Z,16.27
2018-03-14T05:19:48.699Z,18.77
2018-03-14T05:22:16.135Z,18.97
2018-03-14T05:24:43.591Z,17.77
2018-03-14T05:27:10.935Z,21.23
2018-03-14T05:29:38.298Z,17.97
2018-03-14T05:32:05.642Z,17.50
2018-03-14T05:34:33.123Z,18.70
2018-03-14T05:37:00.493Z,19.00
2018-03-14T05:39:27.863Z,19.57
2018-03-14T05:41:55.208Z,23.13
2018-03-14T05:44:22.574Z,17.27
2018-03-14T05:46:49.931Z,18.63
2018-03-14T05:49:17.294Z,22.10
2018-03-14T05:51:44.698Z,19.90
2018-03-14T05:54:12.082Z,20.93
2018-03-14T05:56:39.419Z,23.70
2018-03-14T05:59:06.794Z,27.57
2018-03-14T06:01:34.237Z,18.37
2018-03-14T06:04:01.608Z,20.00
2018-03-14T06:06:28.958Z,32.40
2018-03-14T06:08:56.321Z,21.43
2018-03-14T06:11:23.692Z,19.43
2018-03-14T06:13:51.061Z,18.63
2018-03-14T06:16:18.398Z,19.93
2018-03-14T06:18:45.774Z,20.40
2018-03-14T06:21:13.114Z,17.73
2018-03-14T06:23:40.482Z,22.33
2018-03-14T06:26:07.874Z,21.00
2018-03-14T06:28:35.250Z,19.43
2018-03-14T06:31:02.590Z,17.90
2018-03-14T06:33:29.955Z,18.27
2018-03-14T06:35:57.315Z,18.20
2018-03-14T06:38:24.683Z,18.00
2018-03-14T06:40:52.023Z,41.27
2018-03-14T06:43:19.364Z,30.77
2018-03-14T06:45:46.732Z,22.97
2018-03-14T06:48:14.070Z,20.13
2018-03-14T06:50:41.447Z,16.40
2018-03-14T06:53:08.792Z,14.10
2018-03-14T06:55:36.153Z,17.87
2018-03-14T06:58:03.493Z,14.80
2018-03-14T07:00:36.852Z,15.60
2018-03-14T07:03:10.147Z,13.30
2018-03-14T07:05:43.313Z,13.63
2018-03-14T07:08:10.654Z,12.53
2018-03-14T07:10:38.015Z,18.13
2018-03-14T07:13:05.367Z,14.07
2018-03-14T07:15:32.758Z,16.00
2018-03-14T07:18:00.094Z,12.97
2018-03-14T07:20:27.497Z,13.30
2018-03-14T07:22:54.953Z,14.23
2018-03-14T07:25:22.321Z,16.90
2018-03-14T07:27:49.664Z,16.40
2018-03-14T07:30:17.035Z,14.20
2018-03-14T07:32:44.474Z,17.23
2018-03-14T07:35:11.840Z,16.53
2018-03-14T07:37:39.183Z,17.93
2018-03-14T07:40:06.582Z,16.07
2018-03-14T07:42:33.926Z,15.07
2018-03-14T07:45:01.291Z,15.70
2018-03-14T07:47:28.648Z,18.17
2018-03-14T07:49:56.029Z,20.23
2018-03-14T07:52:23.370Z,17.80
2018-03-14T07:54:50.754Z,17.47
2018-03-14T07:57:18.099Z,23.60
2018-03-14T07:59:45.487Z,19.67
2018-03-14T08:02:12.823Z,16.80
2018-03-14T08:04:40.162Z,15.07
2018-03-14T08:07:07.534Z,14.33
2018-03-14T08:09:34.898Z,17.23
2018-03-14T08:12:02.358Z,21.00
2018-03-14T08:14:29.703Z,13.80
2018-03-14T08:16:57.076Z,18.47
2018-03-14T08:19:24.418Z,14.50
2018-03-14T08:21:51.792Z,13.80
2018-03-14T08:24:19.136Z,14.33
2018-03-14T08:26:46.588Z,12.80
2018-03-14T08:29:13.918Z,13.63
2018-03-14T08:31:41.279Z,13.90
2018-03-14T08:34:08.629Z,13.30
2018-03-14T08:36:35.987Z,14.80
2018-03-14T08:39:03.337Z,16.43
2018-03-14T08:41:30.770Z,16.53
2018-03-14T08:43:58.101Z,13.90
2018-03-14T08:46:25.468Z,14.90
2018-03-14T08:48:52.813Z,19.50
2018-03-14T08:51:20.175Z,13.37
2018-03-14T08:53:47.509Z,19.13
2018-03-14T08:56:14.876Z,16.47
2018-03-14T08:58:42.210Z,13.53
2018-03-14T09:01:09.574Z,12.73
2018-03-14T09:03:36.922Z,17.33
2018-03-14T09:06:04.282Z,12.20
2018-03-14T09:08:31.637Z,14.40
2018-03-14T09:10:59.008Z,13.23
2018-03-14T09:13:26.351Z,11.93
2018-03-14T09:15:53.723Z,13.00
2018-03-14T09:18:21.063Z,14.67
2018-03-14T09:20:48.425Z,14.60
2018-03-14T09:23:15.792Z,12.20
2018-03-14T09:25:43.166Z,16.97
2018-03-14T09:28:10.512Z,14.37
2018-03-14T09:30:37.917Z,14.30
2018-03-14T09:33:05.284Z,13.33
2018-03-14T09:35:32.628Z,12.20
2018-03-14T09:37:59.994Z,13.50
2018-03-14T09:40:27.336Z,13.80
2018-03-14T09:42:54.699Z,10.57
2018-03-14T09:45:22.031Z,13.57
2018-03-14T09:47:49.503Z,11.43
2018-03-14T09:50:16.846Z,11.63
2018-03-14T09:52:44.200Z,8.23
2018-03-14T09:55:11.531Z,10.13
2018-03-14T09:57:38.890Z,8.80
2018-03-14T10:00:06.277Z,7.93
2018-03-14T10:02:33.642Z,9.47
2018-03-14T10:05:00.991Z,8.70
2018-03-14T10:07:28.445Z,10.40
2018-03-14T10:09:55.817Z,10.40
2018-03-14T10:12:23.257Z,9.57
2018-03-14T10:14:50.596Z,10.93
2018-03-14T10:17:17.981Z,10.40
2018-03-14T10:19:45.314Z,10.47
2018-03-14T10:22:12.680Z,9.73
2018-03-14T10:24:40.016Z,9.00
2018-03-14T10:27:07.396Z,9.23
2018-03-14T10:29:34.768Z,12.80
2018-03-14T10:32:02.199Z,11.03
2018-03-14T10:34:29.551Z,19.50
2018-03-14T10:36:56.915Z,7.97
2018-03-14T10:39:24.255Z,8.63
2018-03-14T10:41:51.603Z,9.60
2018-03-14T10:44:18.938Z,11.00
2018-03-14T10:46:46.287Z,10.50
2018-03-14T10:49:13.625Z,9.53
2018-03-14T10:51:41.002Z,7.80
2018-03-14T10:54:08.572Z,12.47
2018-03-14T10:56:35.910Z,9.77
2018-03-14T10:59:03.269Z,10.73
2018-03-14T11:01:36.219Z,11.53
2018-03-14T11:04:03.575Z,9.07
2018-03-14T11:06:30.917Z,10.93
2018-03-14T11:08:58.304Z,12.57
2018-03-14T11:11:25.634Z,7.87
2018-03-14T11:13:53.036Z,10.17
2018-03-14T11:16:20.376Z,8.80
2018-03-14T11:18:47.734Z,7.20
2018-03-14T11:21:15.076Z,7.43
2018-03-14T11:23:42.429Z,9.83
2018-03-14T11:26:09.749Z,7.47
2018-03-14T11:28:37.114Z,8.27
2018-03-14T11:31:04.496Z,9.00
2018-03-14T11:33:31.850Z,8.07
2018-03-14T11:35:59.188Z,10.07
2018-03-14T11:38:26.547Z,8.07
2018-03-14T11:40:53.871Z,7.40
2018-03-14T11:43:21.242Z,9.17
2018-03-14T11:45:48.579Z,6.47
2018-03-14T11:48:15.948Z,7.60
2018-03-14T11:50:43.271Z,7.30
2018-03-14T11:53:10.628Z,7.97
2018-03-14T11:55:37.959Z,7.23
2018-03-14T11:58:05.319Z,8.30
2018-03-14T12:00:32.647Z,12.60
2018-03-14T12:03:00.019Z,7.00
2018-03-14T12:05:27.354Z,10.00
2018-03-14T12:07:54.715Z,8.90
2018-03-14T12:10:22.130Z,8.03
2018-03-14T12:12:49.501Z,10.90
2018-03-14T12:15:16.830Z,7.67
2018-03-14T12:17:44.159Z,8.23
2018-03-14T12:20:11.551Z,8.57
2018-03-14T12:22:38.890Z,7.90
2018-03-14T12:25:06.260Z,32.50
2018-03-14T12:27:33.598Z,10.47
2018-03-14T12:30:00.961Z,10.03
2018-03-14T12:32:28.291Z,12.93
2018-03-14T12:34:55.642Z,10.40
2018-03-14T12:37:22.975Z,8.77
2018-03-14T12:39:50.350Z,8.90
2018-03-14T12:42:17.684Z,7.90
2018-03-14T12:44:45.076Z,9.50
2018-03-14T12:47:12.405Z,8.80
2018-03-14T12:49:39.755Z,8.57
2018-03-14T12:52:07.123Z,11.03
2018-03-14T12:54:34.483Z,11.23
2018-03-14T12:57:01.827Z,9.60
2018-03-14T12:59:29.203Z,11.97
2018-03-14T13:01:56.543Z,10.23
2018-03-14T13:04:23.899Z,10.07
2018-03-14T13:06:51.223Z,9.90
2018-03-14T13:09:18.572Z,8.80
2018-03-14T13:11:45.949Z,13.43
2018-03-14T13:14:13.306Z,9.93
2018-03-14T13:16:40.716Z,8.40
2018-03-14T13:19:08.085Z,10.30
2018-03-14T13:21:35.442Z,8.57
2018-03-14T13:24:02.805Z,13.60
2018-03-14T13:26:30.138Z,13.03
2018-03-14T13:28:57.506Z,10.63
2018-03-14T13:31:24.842Z,11.10
2018-03-14T13:33:52.203Z,7.50
2018-03-14T13:36:19.538Z,11.60
2018-03-14T13:38:46.922Z,7.70
2018-03-14T13:41:14.246Z,8.00
2018-03-14T13:43:41.567Z,8.13
2018-03-14T13:46:08.922Z,9.40
2018-03-14T13:48:36.252Z,15.87
2018-03-14T13:51:03.615Z,8.10
2018-03-14T13:53:30.945Z,7.07
2018-03-14T13:55:58.334Z,10.20
2018-03-14T13:58:25.663Z,8.03
2018-03-14T14:00:53.105Z,8.97
2018-03-14T14:03:20.445Z,5.77
2018-03-14T14:05:47.811Z,7.73
2018-03-14T14:08:15.147Z,5.20
2018-03-14T14:10:42.551Z,5.60
2018-03-14T14:13:09.888Z,10.57
2018-03-14T14:15:37.244Z,10.53
2018-03-14T14:18:04.594Z,7.73
2018-03-14T14:20:31.969Z,4.80
2018-03-14T14:22:59.310Z,7.27
2018-03-14T14:25:26.684Z,6.33
2018-03-14T14:27:54.016Z,8.73
2018-03-14T14:30:21.468Z,8.53
2018-03-14T14:32:48.806Z,11.80
2018-03-14T14:35:16.183Z,8.70
2018-03-14T14:37:43.635Z,9.50
2018-03-14T14:40:10.992Z,10.20
2018-03-14T14:42:38.326Z,11.10
2018-03-14T14:45:05.680Z,8.87
2018-03-14T14:47:33.030Z,9.57
2018-03-14T14:50:00.389Z,11.47
2018-03-14T14:52:27.737Z,13.87
2018-03-14T14:54:55.119Z,13.50
2018-03-14T14:57:22.494Z,14.63
2018-03-14T14:59:49.833Z,11.97
2018-03-14T15:02:17.379Z,9.00
2018-03-14T15:04:44.724Z,7.17
2018-03-14T15:07:12.111Z,9.23
2018-03-14T15:09:39.455Z,14.83
2018-03-14T15:12:06.816Z,12.43
2018-03-14T15:14:34.157Z,11.57
2018-03-14T15:17:01.512Z,9.00
2018-03-14T15:19:28.880Z,11.37
2018-03-14T15:21:56.234Z,10.00
2018-03-14T15:24:23.563Z,9.50
2018-03-14T15:26:50.941Z,10.07
2018-03-14T15:29:18.305Z,7.90
2018-03-14T15:31:45.679Z,6.87
2018-03-14T15:34:13.030Z,11.37
2018-03-14T15:36:40.399Z,6.00
2018-03-14T15:39:07.731Z,7.17
2018-03-14T15:41:35.172Z,8.17
2018-03-14T15:44:02.535Z,10.33
2018-03-14T15:46:29.893Z,7.27
2018-03-14T15:48:57.223Z,10.40
2018-03-14T15:51:24.590Z,8.17
2018-03-14T15:53:51.944Z,6.13
2018-03-14T15:56:19.295Z,9.40
2018-03-14T15:58:46.624Z,7.10
2018-03-14T16:01:13.986Z,9.73
2018-03-14T16:03:41.316Z,6.97
2018-03-14T16:06:08.717Z,12.50
2018-03-14T16:08:36.077Z,10.20
2018-03-14T16:11:03.451Z,10.60
2018-03-14T16:13:30.784Z,6.17
2018-03-14T16:15:58.172Z,7.17
2018-03-14T16:18:25.502Z,10.33
2018-03-14T16:20:52.867Z,22.87
2018-03-14T16:23:20.308Z,6.37
2018-03-14T16:25:47.662Z,8.67
2018-03-14T16:28:15.041Z,11.00
2018-03-14T16:30:42.387Z,6.80
2018-03-14T16:33:09.742Z,7.60
2018-03-14T16:35:37.101Z,6.70
2018-03-14T16:38:04.459Z,7.23
2018-03-14T16:40:31.800Z,4.97
2018-03-14T16:42:59.155Z,9.60
2018-03-14T16:45:26.515Z,6.73
2018-03-14T16:47:53.867Z,8.83
2018-03-14T16:50:21.198Z,8.30
2018-03-14T16:52:48.555Z,9.17
2018-03-14T16:55:15.884Z,6.37
2018-03-14T16:57:43.240Z,5.90
2018-03-14T17:00:10.570Z,6.30
2018-03-14T17:02:37.929Z,7.73
2018-03-14T17:05:05.272Z,10.20
2018-03-14T17:07:32.653Z,6.10
2018-03-14T17:09:59.999Z,8.30
2018-03-14T17:12:27.371Z,9.27
2018-03-14T17:14:54.705Z,7.53
2018-03-14T17:17:22.197Z,10.13
2018-03-14T17:19:49.632Z,12.50
2018-03-14T17:22:17.041Z,8.60
2018-03-14T17:24:44.490Z,7.57
2018-03-14T17:27:11.851Z,9.23
2018-03-14T17:29:39.181Z,8.27
2018-03-14T17:32:06.553Z,9.33
2018-03-14T17:34:34.030Z,8.60
2018-03-14T17:37:01.383Z,10.00
2018-03-14T17:39:28.720Z,8.73
2018-03-14T17:41:56.079Z,8.73
2018-03-14T17:44:23.427Z,19.60
2018-03-14T17:46:50.793Z,17.97
2018-03-14T17:49:18.125Z,26.90
2018-03-14T17:51:45.476Z,10.60
2018-03-14T17:54:12.864Z,10.10
2018-03-14T17:56:40.198Z,19.87
2018-03-14T17:59:07.559Z,11.57
2018-03-14T18:01:34.891Z,7.23
2018-03-14T18:04:02.276Z,9.20
2018-03-14T18:06:29.602Z,8.10
2018-03-14T18:08:56.959Z,12.67
2018-03-14T18:11:24.335Z,9.67
2018-03-14T18:13:51.764Z,11.63
2018-03-14T18:16:19.094Z,8.10
2018-03-14T18:18:46.467Z,10.33
2018-03-14T18:21:13.807Z,8.80
2018-03-14T18:23:41.164Z,8.00
2018-03-14T18:26:08.504Z,7.43
2018-03-14T18:28:35.863Z,10.67
2018-03-14T18:31:03.205Z,10.10
2018-03-14T18:33:30.566Z,10.13
2018-03-14T18:35:57.989Z,8.70
2018-03-14T18:38:25.355Z,8.50
2018-03-14T18:40:53.805Z,6.83
2018-03-14T18:43:22.475Z,10.48
2018-03-14T18:45:49.810Z,8.67
2018-03-14T18:48:17.171Z,8.70
2018-03-14T18:50:44.501Z,7.20
2018-03-14T18:53:11.859Z,10.63
2018-03-14T18:55:39.194Z,8.00
2018-03-14T18:58:06.554Z,14.50
2018-03-14T19:00:33.892Z,8.80
2018-03-14T19:03:01.273Z,13.97
2018-03-14T19:05:28.612Z,30.07
2018-03-14T19:07:55.973Z,14.67
2018-03-14T19:10:23.987Z,11.47
2018-03-14T19:12:51.947Z,11.00
2018-03-14T19:15:20.127Z,10.87
2018-03-14T19:17:48.361Z,10.20
2018-03-14T19:20:16.401Z,9.17
2018-03-14T19:22:44.002Z,9.33
2018-03-14T19:25:11.364Z,13.30
2018-03-14T19:27:38.700Z,11.03
2018-03-14T19:30:06.083Z,10.17
2018-03-14T19:32:33.420Z,10.57
2018-03-14T19:35:00.841Z,13.97
2018-03-14T19:37:28.174Z,10.47
2018-03-14T19:39:55.540Z,11.67
2018-03-14T19:42:22.866Z,9.40
2018-03-14T19:44:50.219Z,12.10
2018-03-14T19:47:17.550Z,10.80
2018-03-14T19:49:44.908Z,9.30
2018-03-14T19:52:12.319Z,9.30
2018-03-14T19:54:39.664Z,12.70
2018-03-14T19:57:06.990Z,11.77
2018-03-14T19:59:34.487Z,10.40
2018-03-14T20:02:02.050Z,11.80
2018-03-14T20:04:30.038Z,9.97
2018-03-14T20:06:57.890Z,12.73
2018-03-14T20:09:25.933Z,14.83
2018-03-14T20:11:53.876Z,14.57
2018-03-14T20:14:22.344Z,12.03
2018-03-14T20:16:50.821Z,14.93
2018-03-14T20:19:18.980Z,11.33
2018-03-14T20:21:47.051Z,7.37
2018-03-14T20:24:16.251Z,11.60
2018-03-14T20:26:44.201Z,9.57
2018-03-14T20:29:11.737Z,9.90
2018-03-14T20:31:39.066Z,11.07
2018-03-14T20:34:06.421Z,9.83
2018-03-14T20:36:33.779Z,11.37
2018-03-14T20:39:01.148Z,9.27
2018-03-14T20:41:28.491Z,8.63
2018-03-14T20:43:55.827Z,11.50
2018-03-14T20:46:23.188Z,11.10
2018-03-14T20:48:50.544Z,11.30
2018-03-14T20:51:17.908Z,7.73
2018-03-14T20:53:45.310Z,11.20
2018-03-14T20:56:12.675Z,11.87
2018-03-14T20:58:40.036Z,16.53
2018-03-14T21:01:07.400Z,14.03
2018-03-14T21:03:34.741Z,10.90
2018-03-14T21:06:02.105Z,13.00
2018-03-14T21:08:29.439Z,12.17
2018-03-14T21:10:56.861Z,14.10
2018-03-14T21:13:24.195Z,18.93
2018-03-14T21:15:51.582Z,13.60
2018-03-14T21:18:18.936Z,17.23
2018-03-14T21:20:46.299Z,13.43
2018-03-14T21:23:13.634Z,11.10
2018-03-14T21:25:41.049Z,12.07
2018-03-14T21:28:08.428Z,8.57
2018-03-14T21:30:35.789Z,9.57
2018-03-14T21:33:03.158Z,16.13
2018-03-14T21:35:30.523Z,11.40
2018-03-14T21:37:57.897Z,15.67
2018-03-14T21:40:25.243Z,18.37
2018-03-14T21:42:52.576Z,12.43
2018-03-14T21:45:19.951Z,13.77
2018-03-14T21:47:47.299Z,14.20
2018-03-14T21:50:14.811Z,14.70
2018-03-14T21:52:42.147Z,12.77
2018-03-14T21:55:09.543Z,12.50
2018-03-14T21:57:36.974Z,12.57
2018-03-14T22:00:04.348Z,10.90
2018-03-14T22:02:32.147Z,10.67
2018-03-14T22:04:59.655Z,10.30
2018-03-14T22:07:27.020Z,12.47
2018-03-14T22:09:54.394Z,15.03
2018-03-14T22:12:21.735Z,11.30
2018-03-14T22:14:49.183Z,14.80
2018-03-14T22:17:16.627Z,10.33
2018-03-14T22:19:43.973Z,11.53
2018-03-14T22:22:11.383Z,12.47
2018-03-14T22:24:38.719Z,12.47
2018-03-14T22:27:06.078Z,10.77
2018-03-14T22:29:33.509Z,13.93
2018-03-14T22:32:00.877Z,15.00
2018-03-14T22:34:28.224Z,13.70
2018-03-14T22:36:55.656Z,13.57
2018-03-14T22:39:22.978Z,16.50
2018-03-14T22:41:50.343Z,13.60
2018-03-14T22:44:17.686Z,14.47
2018-03-14T22:46:45.098Z,13.60
2018-03-14T22:49:12.448Z,14.63
2018-03-14T22:51:39.905Z,15.10
2018-03-14T22:54:07.294Z,12.23
2018-03-14T22:56:34.663Z,14.87
2018-03-14T22:59:02.051Z,14.23
2018-03-14T23:01:29.402Z,16.17
2018-03-14T23:03:56.751Z,13.77
2018-03-14T23:06:24.138Z,18.07
2018-03-14T23:08:51.499Z,12.30
2018-03-14T23:11:18.864Z,14.40
2018-03-14T23:13:46.206Z,13.30
2018-03-14T23:16:13.571Z,13.73
2018-03-14T23:18:40.919Z,16.43
2018-03-14T23:21:08.374Z,12.90
2018-03-14T23:23:35.712Z,13.70
2018-03-14T23:26:03.180Z,17.93
2018-03-14T23:28:30.639Z,13.80
2018-03-14T23:30:58.007Z,16.33
2018-03-14T23:33:25.449Z,14.67
2018-03-14T23:35:52.854Z,17.03
2018-03-14T23:38:20.199Z,18.43
2018-03-14T23:40:47.550Z,14.20
2018-03-14T23:43:14.910Z,14.60
2018-03-14T23:45:42.252Z,19.97
2018-03-14T23:48:09.617Z,16.10
2018-03-14T23:50:36.985Z,15.10
2018-03-14T23:53:04.357Z,12.63
2018-03-14T23:55:31.726Z,15.47
2018-03-14T23:57:59.086Z,12.57
